Time;durP1;ratioP1;P1;durP2;ratioP2;P2;SDS_P1;SDS_P2;PMS_P1;PMS_P2;Temp;Humidity;BMP_temperature;BMP_pressure;BME280_temperature;BME280_humidity;BME280_pressure;Samples;Min_cycle;Max_cycle;Signal;HPM_P1;HPM_P2
2022/11/26 00:02:31;;;;;;;8.43;7.63;;;7.30;99.90;;;;;;4969184;28;20264;-66
2022/11/26 00:04:58;;;;;;;9.07;7.50;;;7.30;99.90;;;;;;4956406;28;20198;-66
2022/11/26 00:07:27;;;;;;;8.50;7.67;;;7.30;99.90;;;;;;4971398;28;20177;-66
2022/11/26 00:09:54;;;;;;;8.87;7.43;;;7.30;99.90;;;;;;4971554;28;20185;-66
2022/11/26 00:12:26;;;;;;;18.50;9.60;;;7.30;99.90;;;;;;4973045;28;20208;-66
2022/11/26 00:14:52;;;;;;;11.93;8.50;;;7.30;99.90;;;;;;4973073;28;20202;-66
2022/11/26 00:17:19;;;;;;;10.13;7.60;;;7.30;99.90;;;;;;4953847;28;20187;-66
2022/11/26 00:19:45;;;;;;;11.07;8.57;;;7.30;99.90;;;;;;4953606;28;20174;-66
2022/11/26 00:22:31;;;;;;;12.50;8.93;;;7.30;99.90;;;;;;4971879;28;20244;-66
2022/11/26 00:24:57;;;;;;;8.63;7.97;;;7.30;99.90;;;;;;4970724;28;20213;-66
2022/11/26 00:27:25;;;;;;;12.07;7.97;;;7.20;99.90;;;;;;4970334;28;20196;-66
2022/11/26 00:29:51;;;;;;;17.13;9.20;;;7.20;99.90;;;;;;4971128;28;20181;-66
2022/11/26 00:32:19;;;;;;;9.53;8.43;;;7.10;99.90;;;;;;4971117;28;20213;-66
2022/11/26 00:34:45;;;;;;;8.53;7.80;;;7.10;99.90;;;;;;4972792;28;20200;-66
2022/11/26 00:37:24;;;;;;;8.60;7.90;;;7.00;99.90;;;;;;4972595;28;20215;-66
2022/11/26 00:39:50;;;;;;;7.67;6.93;;;6.90;99.90;;;;;;4972597;28;20190;-66
2022/11/26 00:42:17;;;;;;;8.47;7.63;;;6.90;99.90;;;;;;4972966;28;20190;-66
2022/11/26 00:44:43;;;;;;;13.90;8.50;;;6.80;99.90;;;;;;4972910;28;20193;-66
2022/11/26 00:47:09;;;;;;;13.47;7.60;;;6.70;99.90;;;;;;4971017;28;20280;-66
2022/11/26 00:49:34;;;;;;;10.40;7.10;;;6.60;99.90;;;;;;4972297;28;20691;-66
2022/11/26 00:52:00;;;;;;;12.13;6.70;;;6.60;99.90;;;;;;4971105;28;20209;-66
2022/11/26 00:54:27;;;;;;;11.60;7.53;;;6.50;99.90;;;;;;4971580;28;20564;-66
2022/11/26 00:56:52;;;;;;;9.03;8.10;;;6.50;99.90;;;;;;4972720;28;20177;-66
2022/11/26 00:59:21;;;;;;;8.87;8.10;;;6.40;99.90;;;;;;4971085;28;20538;-66
2022/11/26 01:01:47;;;;;;;10.80;7.20;;;6.40;99.90;;;;;;4971141;28;20240;-66
2022/11/26 01:04:12;;;;;;;10.30;7.87;;;6.40;99.90;;;;;;4972532;28;20533;-66
2022/11/26 01:06:42;;;;;;;8.83;7.10;;;6.40;99.90;;;;;;4972242;28;20209;-66
2022/11/26 01:09:16;;;;;;;12.40;7.40;;;6.50;99.90;;;;;;4972405;28;20177;-66
2022/11/26 01:11:41;;;;;;;12.80;7.87;;;6.50;99.90;;;;;;4972208;28;20193;-66
2022/11/26 01:14:14;;;;;;;13.03;8.10;;;6.60;99.90;;;;;;4971368;28;20245;-66
2022/11/26 01:16:42;;;;;;;8.30;7.60;;;6.60;99.90;;;;;;4972211;28;20686;-66
2022/11/26 01:19:10;;;;;;;7.83;7.17;;;6.60;99.90;;;;;;4974375;28;20470;-66
2022/11/26 01:21:36;;;;;;;9.57;8.30;;;6.70;99.90;;;;;;4976108;28;20182;-66
2022/11/26 01:24:02;;;;;;;16.97;8.00;;;6.70;99.90;;;;;;5000392;23;20229;-67
2022/11/26 01:26:34;;;;;;;9.30;7.80;;;6.80;99.90;;;;;;4979373;28;20235;-68
2022/11/26 01:29:00;;;;;;;14.90;9.97;;;6.80;99.90;;;;;;4995790;28;20256;-67
2022/11/26 01:31:27;;;;;;;9.03;8.10;;;6.70;99.90;;;;;;4974761;28;20723;-67
2022/11/26 01:33:53;;;;;;;9.67;8.63;;;6.70;99.90;;;;;;4976389;28;20666;-67
2022/11/26 01:36:30;;;;;;;9.70;8.47;;;6.60;99.90;;;;;;4975858;28;20174;-67
2022/11/26 01:39:05;;;;;;;14.40;8.43;;;6.60;99.90;;;;;;4976186;28;20599;-68
2022/11/26 01:42:01;;;;;;;10.77;9.23;;;6.50;99.90;;;;;;4975625;28;20169;-66
2022/11/26 01:44:29;;;;;;;9.40;8.47;;;6.40;99.90;;;;;;4958336;28;20208;-67
2022/11/26 01:46:55;;;;;;;11.33;7.40;;;6.40;99.90;;;;;;4975819;28;20694;-67
2022/11/26 01:49:23;;;;;;;11.47;9.40;;;6.40;99.90;;;;;;4975561;28;20584;-67
2022/11/26 01:52:11;;;;;;;20.10;8.80;;;6.30;99.90;;;;;;4975566;28;20252;-67
2022/11/26 01:54:41;;;;;;;11.80;9.23;;;6.30;99.90;;;;;;4975927;28;20237;-67
2022/11/26 01:57:11;;;;;;;13.20;9.63;;;6.20;99.90;;;;;;4975709;28;20204;-67
2022/11/26 01:59:40;;;;;;;14.30;9.63;;;6.10;99.90;;;;;;4975350;28;20311;-68
2022/11/26 02:02:06;;;;;;;17.23;9.70;;;6.10;99.90;;;;;;4975653;28;20217;-67
2022/11/26 02:04:36;;;;;;;23.97;9.20;;;6.00;99.90;;;;;;4975870;28;20236;-67
2022/11/26 02:07:02;;;;;;;11.53;8.30;;;6.00;99.90;;;;;;4975461;28;20713;-67
2022/11/26 02:09:29;;;;;;;9.77;8.53;;;6.00;99.90;;;;;;4975268;28;20181;-68
2022/11/26 02:11:55;;;;;;;10.07;8.67;;;5.90;99.90;;;;;;4975244;28;20304;-67
2022/11/26 02:14:29;;;;;;;9.00;8.23;;;5.90;99.90;;;;;;4975461;28;20232;-68
2022/11/26 02:17:07;;;;;;;10.60;9.53;;;5.90;99.90;;;;;;4975249;28;20170;-68
2022/11/26 02:20:07;;;;;;;10.20;9.17;;;5.90;99.90;;;;;;4966348;28;20240;-67
2022/11/26 02:22:48;;;;;;;10.03;9.13;;;5.90;99.90;;;;;;4956488;29;20182;-67
2022/11/26 02:25:32;;;;;;;8.47;7.63;;;5.90;99.90;;;;;;4955958;29;20698;-67
2022/11/26 02:28:06;;;;;;;9.17;7.90;;;5.80;99.90;;;;;;4963263;28;20197;-67
2022/11/26 02:30:37;;;;;;;16.37;9.90;;;5.80;99.90;;;;;;4974320;28;20642;-68
2022/11/26 02:33:28;;;;;;;21.37;8.53;;;5.80;99.90;;;;;;4974978;28;20571;-67
2022/11/26 02:36:25;;;;;;;14.40;9.50;;;5.70;99.90;;;;;;4975542;28;20551;-67
2022/11/26 02:38:50;;;;;;;8.93;8.00;;;5.70;99.90;;;;;;4974064;28;20185;-67
2022/11/26 02:41:16;;;;;;;23.93;8.73;;;5.70;99.90;;;;;;4974875;28;20306;-67
2022/11/26 02:43:42;;;;;;;17.13;8.67;;;5.70;99.90;;;;;;4953504;29;20289;-67
2022/11/26 02:46:15;;;;;;;9.23;8.40;;;5.70;99.90;;;;;;4955655;29;20174;-67
2022/11/26 02:48:46;;;;;;;10.70;9.60;;;5.70;99.90;;;;;;4965629;28;20220;-67
2022/11/26 02:51:16;;;;;;;19.63;9.63;;;5.70;99.90;;;;;;4974618;28;20177;-67
2022/11/26 02:53:44;;;;;;;9.80;8.67;;;5.60;99.90;;;;;;4972734;28;20271;-68
2022/11/26 02:56:15;;;;;;;9.80;8.20;;;5.60;99.90;;;;;;4974254;28;20177;-68
2022/11/26 02:58:42;;;;;;;14.77;7.27;;;5.50;99.90;;;;;;4974777;28;20204;-67
2022/11/26 03:01:30;;;;;;;12.07;8.30;;;5.40;99.90;;;;;;4974550;28;20181;-67
2022/11/26 03:04:04;;;;;;;10.70;7.67;;;5.30;99.90;;;;;;4974046;28;20285;-67
2022/11/26 03:06:32;;;;;;;10.27;8.50;;;5.20;99.90;;;;;;4974379;28;20710;-67
2022/11/26 03:08:58;;;;;;;13.17;8.93;;;5.10;99.90;;;;;;4974810;28;20232;-67
2022/11/26 03:11:24;;;;;;;9.97;7.90;;;4.90;99.90;;;;;;4973705;28;20707;-67
2022/11/26 03:13:49;;;;;;;11.20;8.70;;;4.80;99.90;;;;;;4973989;28;20213;-67
2022/11/26 03:16:16;;;;;;;8.30;7.50;;;4.70;99.90;;;;;;4973421;28;20178;-67
2022/11/26 03:18:41;;;;;;;9.20;8.13;;;4.70;99.90;;;;;;4974365;28;20215;-67
2022/11/26 03:21:07;;;;;;;10.67;8.90;;;4.70;99.90;;;;;;4974029;28;20244;-67
2022/11/26 03:23:33;;;;;;;8.60;7.50;;;4.60;99.90;;;;;;4973749;28;20192;-66
2022/11/26 03:25:58;;;;;;;13.87;8.87;;;4.60;99.90;;;;;;4973768;28;20193;-67
2022/11/26 03:28:24;;;;;;;10.00;8.93;;;4.50;99.90;;;;;;4973409;28;20182;-68
2022/11/26 03:30:51;;;;;;;16.80;8.77;;;4.40;99.90;;;;;;4973466;28;20181;-67
2022/11/26 03:33:17;;;;;;;8.47;7.70;;;4.40;99.90;;;;;;4973940;28;20223;-68
2022/11/26 03:35:43;;;;;;;12.83;7.80;;;4.30;99.90;;;;;;4973698;28;20205;-67
2022/11/26 03:38:08;;;;;;;9.40;8.57;;;4.20;99.90;;;;;;4974030;28;20729;-67
2022/11/26 03:40:34;;;;;;;11.23;8.27;;;4.20;99.90;;;;;;4972019;28;20185;-67
2022/11/26 03:42:59;;;;;;;18.70;9.33;;;4.20;99.90;;;;;;4972769;28;20178;-68
2022/11/26 03:45:25;;;;;;;15.33;9.03;;;4.20;99.90;;;;;;4973374;28;20209;-67
2022/11/26 03:47:51;;;;;;;9.87;9.07;;;4.20;99.90;;;;;;4973783;28;20614;-66
2022/11/26 03:50:16;;;;;;;14.67;9.20;;;4.10;99.90;;;;;;4973225;28;20277;-67
2022/11/26 03:52:42;;;;;;;13.87;9.63;;;4.10;99.90;;;;;;4973646;28;20221;-67
2022/11/26 03:55:08;;;;;;;13.40;10.53;;;4.00;99.90;;;;;;4973166;28;20240;-67
2022/11/26 03:57:34;;;;;;;28.43;13.60;;;4.00;99.90;;;;;;4973527;28;20180;-67
2022/11/26 04:00:00;;;;;;;13.90;11.07;;;4.00;99.90;;;;;;4972998;28;20182;-67
2022/11/26 04:02:25;;;;;;;23.93;11.70;;;4.00;99.90;;;;;;4973367;28;20277;-67
2022/11/26 04:04:51;;;;;;;19.50;11.57;;;4.00;99.90;;;;;;4973235;28;20697;-66
2022/11/26 04:07:16;;;;;;;20.03;12.07;;;3.90;99.90;;;;;;4973192;28;20181;-67
2022/11/26 04:09:42;;;;;;;13.73;9.93;;;3.70;99.90;;;;;;4972719;28;20181;-67
2022/11/26 04:12:08;;;;;;;14.83;10.77;;;3.70;99.90;;;;;;4973304;28;20288;-66
2022/11/26 04:14:34;;;;;;;51.30;27.03;;;3.70;99.90;;;;;;4972962;28;20205;-67
2022/11/26 04:16:59;;;;;;;27.03;17.23;;;3.80;99.90;;;;;;4973055;28;20181;-67
2022/11/26 04:19:25;;;;;;;29.03;16.20;;;3.70;99.90;;;;;;4955351;28;20662;-67
2022/11/26 04:21:50;;;;;;;20.87;14.43;;;3.80;99.90;;;;;;4973012;28;20251;-67
2022/11/26 04:24:16;;;;;;;20.23;13.53;;;3.80;99.90;;;;;;4972920;28;20216;-67
2022/11/26 04:26:41;;;;;;;12.47;11.13;;;3.70;99.90;;;;;;4972769;28;20182;-67
2022/11/26 04:29:07;;;;;;;11.87;10.73;;;3.70;99.90;;;;;;4972839;28;20647;-67
2022/11/26 04:31:33;;;;;;;12.80;10.37;;;3.70;99.90;;;;;;4972379;28;20232;-67
2022/11/26 04:33:58;;;;;;;19.83;11.53;;;3.60;99.90;;;;;;4972993;28;20636;-66
2022/11/26 04:36:24;;;;;;;15.47;12.10;;;3.50;99.90;;;;;;4972676;28;20174;-67
2022/11/26 04:38:49;;;;;;;12.70;11.40;;;3.50;99.90;;;;;;4973138;28;20169;-67
2022/11/26 04:41:15;;;;;;;14.33;10.53;;;3.50;99.90;;;;;;4972367;28;20189;-68
2022/11/26 04:43:40;;;;;;;11.83;10.10;;;3.50;99.90;;;;;;4972849;28;20205;-67
2022/11/26 04:46:06;;;;;;;15.03;8.87;;;3.40;99.90;;;;;;4972560;28;20663;-67
2022/11/26 04:48:31;;;;;;;12.97;9.77;;;3.40;99.90;;;;;;4972703;28;20189;-67
2022/11/26 04:50:57;;;;;;;10.83;9.67;;;3.40;99.90;;;;;;4972418;28;20185;-66
2022/11/26 04:53:23;;;;;;;10.67;9.60;;;3.40;99.90;;;;;;4972292;28;20205;-66
2022/11/26 04:55:49;;;;;;;11.43;9.93;;;3.40;99.90;;;;;;4972468;28;20228;-66
2022/11/26 04:58:16;;;;;;;12.23;11.13;;;3.50;99.90;;;;;;4972760;28;20185;-67
2022/11/26 05:00:42;;;;;;;16.77;10.67;;;3.50;99.90;;;;;;4972301;28;20184;-66
2022/11/26 05:03:08;;;;;;;15.00;9.93;;;3.50;99.90;;;;;;4972642;28;20276;-66
2022/11/26 05:05:34;;;;;;;13.30;10.20;;;3.40;99.90;;;;;;4972063;28;20201;-67
2022/11/26 05:07:59;;;;;;;12.53;10.83;;;3.40;99.90;;;;;;4972884;28;20184;-66
2022/11/26 05:10:25;;;;;;;10.93;9.90;;;3.30;99.90;;;;;;4972091;28;20320;-66
2022/11/26 05:12:50;;;;;;;9.60;8.70;;;3.30;99.90;;;;;;4972593;28;20205;-66
2022/11/26 05:15:16;;;;;;;13.43;9.37;;;3.30;99.90;;;;;;4972711;28;20287;-67
2022/11/26 05:17:42;;;;;;;10.17;9.17;;;3.20;99.90;;;;;;4972234;28;20186;-68
2022/11/26 05:20:08;;;;;;;9.93;9.03;;;3.20;99.90;;;;;;4972327;28;20173;-67
2022/11/26 05:22:34;;;;;;;10.20;9.17;;;3.30;99.90;;;;;;4972127;28;20220;-66
2022/11/26 05:24:59;;;;;;;11.13;10.00;;;3.30;99.90;;;;;;4972394;28;20294;-65
2022/11/26 05:27:25;;;;;;;11.60;9.37;;;3.30;99.90;;;;;;4972076;28;20236;-66
2022/11/26 05:29:50;;;;;;;16.67;8.73;;;3.20;99.90;;;;;;4972065;28;20185;-67
2022/11/26 05:32:16;;;;;;;10.00;9.13;;;3.20;99.90;;;;;;4972068;28;20615;-66
2022/11/26 05:34:41;;;;;;;10.63;9.53;;;3.10;99.90;;;;;;4972591;28;20284;-66
2022/11/26 05:37:07;;;;;;;10.03;9.03;;;3.10;99.90;;;;;;4972207;28;20240;-66
2022/11/26 05:39:33;;;;;;;10.23;8.03;;;3.00;99.90;;;;;;4972238;28;20219;-67
2022/11/26 05:41:58;;;;;;;9.90;8.03;;;3.00;99.90;;;;;;4972034;28;20236;-66
2022/11/26 05:44:24;;;;;;;10.50;8.77;;;3.00;99.90;;;;;;4972239;28;20193;-66
2022/11/26 05:46:50;;;;;;;9.10;8.17;;;2.90;99.90;;;;;;4972096;28;20244;-66
2022/11/26 05:49:15;;;;;;;9.07;8.43;;;3.00;99.90;;;;;;4972414;28;20186;-66
2022/11/26 05:51:41;;;;;;;9.27;8.37;;;3.00;99.90;;;;;;4971690;28;20185;-66
2022/11/26 05:54:10;;;;;;;8.53;7.93;;;3.00;99.90;;;;;;4972236;28;20281;-67
2022/11/26 05:56:36;;;;;;;14.90;9.87;;;3.00;99.90;;;;;;4972018;28;20269;-67
2022/11/26 05:59:02;;;;;;;13.00;9.03;;;3.00;99.90;;;;;;4972399;28;20687;-66
2022/11/26 06:01:27;;;;;;;10.90;9.60;;;3.00;99.90;;;;;;4971592;28;20228;-66
2022/11/26 06:03:53;;;;;;;20.60;8.03;;;3.00;99.90;;;;;;4971965;28;20225;-67
2022/11/26 06:06:18;;;;;;;9.30;8.40;;;3.00;99.90;;;;;;4975346;28;20706;-67
2022/11/26 06:08:44;;;;;;;13.10;8.93;;;3.10;99.90;;;;;;4975742;28;20206;-66
2022/11/26 06:11:12;;;;;;;9.50;8.27;;;3.10;99.90;;;;;;4975177;28;20698;-67
2022/11/26 06:13:38;;;;;;;9.30;8.50;;;3.10;99.90;;;;;;4954711;28;20221;-67
2022/11/26 06:16:03;;;;;;;7.93;7.33;;;3.00;99.90;;;;;;4956231;29;20692;-67
2022/11/26 06:18:29;;;;;;;8.87;8.03;;;3.00;99.90;;;;;;4974096;28;20208;-66
2022/11/26 06:20:59;;;;;;;9.07;7.57;;;3.00;99.90;;;;;;4974599;28;20205;-66
2022/11/26 06:23:25;;;;;;;8.03;7.33;;;3.00;99.90;;;;;;4972298;28;20193;-67
2022/11/26 06:25:51;;;;;;;9.40;7.63;;;3.00;99.90;;;;;;4955234;29;20186;-67
2022/11/26 06:28:16;;;;;;;8.47;7.73;;;2.90;99.90;;;;;;4955893;29;20222;-67
2022/11/26 06:30:43;;;;;;;9.50;8.70;;;2.90;99.90;;;;;;4955764;29;20178;-67
2022/11/26 06:33:09;;;;;;;8.10;7.43;;;2.80;99.90;;;;;;4969026;28;20240;-67
2022/11/26 06:35:35;;;;;;;12.50;9.37;;;2.80;99.90;;;;;;4974730;28;20283;-68
2022/11/26 06:38:00;;;;;;;8.77;8.17;;;2.80;99.90;;;;;;4974741;28;20185;-67
2022/11/26 06:40:26;;;;;;;9.90;8.43;;;2.80;99.90;;;;;;4974981;28;20227;-67
2022/11/26 06:42:52;;;;;;;9.93;8.97;;;2.80;99.90;;;;;;4974859;28;20664;-68
2022/11/26 06:45:19;;;;;;;8.83;8.10;;;2.80;99.90;;;;;;4974890;28;20581;-67
2022/11/26 06:47:46;;;;;;;10.87;9.00;;;2.70;99.90;;;;;;4974448;28;20189;-67
2022/11/26 06:50:13;;;;;;;9.17;8.27;;;2.70;99.90;;;;;;4974646;28;20203;-67
2022/11/26 06:52:38;;;;;;;9.33;8.37;;;2.70;99.90;;;;;;4974481;28;20213;-67
2022/11/26 06:55:04;;;;;;;9.00;8.20;;;2.70;99.90;;;;;;4974758;28;20281;-67
2022/11/26 06:57:30;;;;;;;9.20;8.23;;;2.70;99.90;;;;;;4974364;28;20186;-67
2022/11/26 06:59:56;;;;;;;9.53;8.27;;;2.70;99.90;;;;;;4972797;28;20186;-68
2022/11/26 07:02:21;;;;;;;9.57;8.73;;;2.70;99.90;;;;;;4973710;28;20216;-67
2022/11/26 07:04:47;;;;;;;13.40;8.47;;;2.70;99.90;;;;;;4974086;28;20233;-67
2022/11/26 07:07:13;;;;;;;8.73;8.13;;;2.70;99.90;;;;;;4974270;28;20268;-67
2022/11/26 07:09:39;;;;;;;12.13;8.17;;;2.70;99.90;;;;;;4973384;28;20696;-67
2022/11/26 07:12:05;;;;;;;7.87;7.27;;;2.80;99.90;;;;;;4974063;28;20205;-67
2022/11/26 07:14:30;;;;;;;8.10;7.40;;;2.80;99.90;;;;;;4974149;28;20272;-67
2022/11/26 07:16:56;;;;;;;13.37;7.57;;;2.90;99.90;;;;;;4974152;28;20173;-67
2022/11/26 07:19:22;;;;;;;13.63;9.17;;;2.90;99.90;;;;;;4973350;28;20181;-66
2022/11/26 07:21:47;;;;;;;8.57;7.03;;;3.00;99.90;;;;;;4974011;28;20186;-67
2022/11/26 07:24:13;;;;;;;8.20;7.60;;;3.10;99.90;;;;;;4974286;28;20249;-67
2022/11/26 07:26:38;;;;;;;10.27;9.47;;;3.20;99.90;;;;;;4973985;28;20666;-67
2022/11/26 07:29:04;;;;;;;11.63;9.83;;;3.30;99.90;;;;;;4973695;28;20190;-67
2022/11/26 07:31:30;;;;;;;20.63;10.93;;;3.30;99.90;;;;;;4973790;28;20265;-67
2022/11/26 07:33:56;;;;;;;12.73;10.50;;;3.40;99.90;;;;;;4973310;28;20224;-68
2022/11/26 07:36:24;;;;;;;9.93;9.13;;;3.50;99.90;;;;;;4973760;28;20212;-67
2022/11/26 07:38:53;;;;;;;11.07;10.17;;;3.60;99.90;;;;;;4973562;28;20588;-67
2022/11/26 07:41:19;;;;;;;9.10;8.60;;;3.80;99.90;;;;;;4973690;28;20170;-67
2022/11/26 07:43:45;;;;;;;10.67;9.07;;;3.80;99.90;;;;;;4973317;28;20243;-67
2022/11/26 07:46:14;;;;;;;9.30;8.67;;;3.90;99.90;;;;;;4956267;28;20190;-67
2022/11/26 07:48:40;;;;;;;14.00;8.27;;;4.00;99.90;;;;;;4973408;28;20622;-68
2022/11/26 07:51:13;;;;;;;8.80;7.50;;;4.10;99.90;;;;;;4973408;28;20182;-67
2022/11/26 07:53:39;;;;;;;9.53;7.50;;;4.20;99.90;;;;;;4973035;28;20217;-67
2022/11/26 07:56:05;;;;;;;8.40;7.57;;;4.30;99.90;;;;;;4973435;28;20185;-67
2022/11/26 07:58:31;;;;;;;14.87;7.60;;;4.30;99.90;;;;;;4972926;28;20213;-68
2022/11/26 08:01:04;;;;;;;7.97;7.47;;;4.50;99.90;;;;;;4973199;28;20183;-67
2022/11/26 08:03:29;;;;;;;8.13;7.30;;;4.50;99.90;;;;;;4972954;28;20651;-67
2022/11/26 08:05:55;;;;;;;8.30;7.50;;;4.60;99.90;;;;;;4973287;28;20173;-67
2022/11/26 08:08:21;;;;;;;7.87;7.27;;;4.60;99.90;;;;;;4973029;28;20674;-67
2022/11/26 08:10:46;;;;;;;7.90;7.10;;;4.70;99.90;;;;;;4972786;28;20177;-67
2022/11/26 08:13:12;;;;;;;7.60;7.00;;;4.80;99.90;;;;;;4972861;28;20217;-68
2022/11/26 08:15:37;;;;;;;11.07;6.83;;;4.90;99.90;;;;;;4972881;28;20193;-68
2022/11/26 08:18:03;;;;;;;11.47;9.83;;;4.90;99.90;;;;;;4972831;28;20182;-67
2022/11/26 08:20:28;;;;;;;7.20;6.60;;;5.00;99.90;;;;;;4975815;28;20178;-67
2022/11/26 08:22:54;;;;;;;8.47;7.73;;;5.20;99.90;;;;;;4977488;28;20174;-68
2022/11/26 08:25:19;;;;;;;8.27;7.13;;;5.30;99.90;;;;;;4973493;28;20757;-68
2022/11/26 08:27:45;;;;;;;9.60;8.70;;;5.40;99.90;;;;;;4972862;28;20276;-67
2022/11/26 08:30:13;;;;;;;9.40;8.40;;;5.50;99.90;;;;;;4972911;28;20193;-67
2022/11/26 08:32:39;;;;;;;15.07;7.40;;;5.60;99.90;;;;;;4978538;28;20622;-67
2022/11/26 08:35:04;;;;;;;14.47;7.73;;;5.80;99.90;;;;;;4978397;28;20198;-67
2022/11/26 08:37:30;;;;;;;12.40;10.37;;;6.10;99.90;;;;;;4977915;28;20193;-67
2022/11/26 08:39:55;;;;;;;20.97;12.87;;;6.40;99.90;;;;;;4975599;28;20189;-68
2022/11/26 08:42:21;;;;;;;9.63;8.43;;;6.60;99.90;;;;;;4978042;28;20317;-67
2022/11/26 08:44:47;;;;;;;14.03;9.00;;;6.80;99.90;;;;;;4978323;28;20455;-67
2022/11/26 08:47:12;;;;;;;13.80;9.77;;;7.00;99.90;;;;;;4975471;28;20190;-67
2022/11/26 08:49:38;;;;;;;14.93;8.47;;;7.30;99.90;;;;;;4972300;28;20535;-68
2022/11/26 08:52:04;;;;;;;8.87;8.07;;;7.60;99.90;;;;;;4972574;28;20208;-68
2022/11/26 08:54:29;;;;;;;13.17;7.33;;;7.80;99.90;;;;;;4971691;28;20203;-68
2022/11/26 08:56:55;;;;;;;16.10;9.10;;;8.20;99.90;;;;;;4976513;28;20180;-67
2022/11/26 08:59:23;;;;;;;12.67;7.53;;;8.40;99.90;;;;;;4977258;28;20173;-68
2022/11/26 09:01:48;;;;;;;13.60;9.00;;;8.50;99.90;;;;;;4977474;28;20296;-67
2022/11/26 09:04:14;;;;;;;8.50;6.80;;;8.60;99.90;;;;;;4976817;28;20237;-67
2022/11/26 09:06:40;;;;;;;11.13;7.90;;;8.80;99.90;;;;;;4972896;28;20200;-68
2022/11/26 09:09:12;;;;;;;10.20;7.87;;;9.00;99.90;;;;;;4972320;28;20175;-68
2022/11/26 09:11:59;;;;;;;9.40;7.43;;;8.90;99.90;;;;;;4972074;28;20193;-68
2022/11/26 09:14:27;;;;;;;10.20;6.97;;;8.80;99.90;;;;;;4971987;28;20239;-68
2022/11/26 09:16:54;;;;;;;11.83;8.60;;;8.70;99.90;;;;;;4955194;28;20178;-68
2022/11/26 09:19:19;;;;;;;7.67;6.97;;;8.60;99.90;;;;;;4976532;28;20216;-67
2022/11/26 09:21:46;;;;;;;13.13;7.33;;;8.60;99.90;;;;;;4973974;28;20208;-67
2022/11/26 09:24:13;;;;;;;11.73;7.93;;;8.70;99.90;;;;;;4971930;28;20240;-68
2022/11/26 09:26:38;;;;;;;11.07;7.77;;;8.90;99.90;;;;;;4971884;28;20641;-68
2022/11/26 09:29:05;;;;;;;8.93;7.83;;;9.20;99.90;;;;;;4972411;28;20257;-68
2022/11/26 09:31:31;;;;;;;12.00;8.53;;;9.30;99.90;;;;;;4971906;28;20537;-67
2022/11/26 09:33:59;;;;;;;13.93;8.27;;;9.50;99.90;;;;;;4975608;28;20216;-67
2022/11/26 09:36:25;;;;;;;11.10;6.97;;;9.70;99.90;;;;;;4956135;29;20178;-67
2022/11/26 09:38:55;;;;;;;8.87;7.57;;;9.90;99.90;;;;;;4954540;28;20201;-68
2022/11/26 09:41:29;;;;;;;8.63;7.33;;;10.10;99.90;;;;;;4971158;28;20627;-68
2022/11/26 09:44:07;;;;;;;16.93;8.10;;;10.10;99.90;;;;;;4978838;28;20287;-67
2022/11/26 09:46:59;;;;;;;14.70;8.07;;;10.10;99.90;;;;;;4980003;28;20197;-67
2022/11/26 09:49:27;;;;;;;7.67;6.73;;;10.10;99.90;;;;;;4979997;28;20185;-67
2022/11/26 09:51:56;;;;;;;9.87;8.40;;;10.10;99.90;;;;;;4979962;28;20647;-67
2022/11/26 09:54:23;;;;;;;10.57;7.47;;;10.10;99.90;;;;;;4980579;28;20189;-67
2022/11/26 09:56:53;;;;;;;9.37;7.00;;;10.00;99.90;;;;;;4980570;28;20181;-67
2022/11/26 09:59:21;;;;;;;9.17;7.83;;;9.90;99.90;;;;;;4980040;28;20205;-67
2022/11/26 10:01:47;;;;;;;12.97;7.27;;;9.90;99.90;;;;;;4981255;28;20177;-67
2022/11/26 10:04:23;;;;;;;14.57;8.07;;;9.80;99.90;;;;;;4978405;28;20201;-67
2022/11/26 10:06:55;;;;;;;11.80;8.63;;;9.70;99.90;;;;;;4981704;28;20192;-67
2022/11/26 10:09:29;;;;;;;8.87;7.57;;;9.70;99.90;;;;;;4979167;28;20217;-67
2022/11/26 10:12:23;;;;;;;8.93;7.70;;;9.80;99.90;;;;;;4981618;28;20224;-67
2022/11/26 10:14:59;;;;;;;8.57;7.67;;;9.90;99.90;;;;;;4980079;28;20225;-67
2022/11/26 10:17:47;;;;;;;12.10;8.07;;;10.00;99.90;;;;;;4979576;28;20165;-67
2022/11/26 10:20:42;;;;;;;10.80;6.53;;;9.90;99.90;;;;;;4979778;28;20524;-67
2022/11/26 10:23:11;;;;;;;10.00;7.03;;;9.90;99.90;;;;;;4980677;28;20205;-67
2022/11/26 10:25:49;;;;;;;8.27;6.83;;;10.00;99.90;;;;;;4979976;28;20217;-67
2022/11/26 10:28:23;;;;;;;10.67;6.93;;;10.10;99.90;;;;;;4978665;28;20617;-68
2022/11/26 10:31:00;;;;;;;9.70;7.83;;;10.20;99.90;;;;;;4976322;28;20560;-67
2022/11/26 10:33:36;;;;;;;14.03;7.67;;;10.40;99.90;;;;;;4975728;28;20221;-67
2022/11/26 10:36:05;;;;;;;12.47;7.83;;;10.50;99.90;;;;;;4974939;28;20588;-67
2022/11/26 10:38:30;;;;;;;12.40;6.87;;;10.70;99.90;;;;;;4977881;28;20537;-67
2022/11/26 10:40:56;;;;;;;10.20;7.00;;;10.90;99.90;;;;;;4973252;28;20197;-67
2022/11/26 10:43:23;;;;;;;8.90;5.83;;;11.10;99.90;;;;;;4976560;28;20548;-67
2022/11/26 10:45:54;;;;;;;8.83;6.43;;;11.40;99.90;;;;;;4974728;28;20178;-68
2022/11/26 10:48:31;;;;;;;11.27;6.10;;;11.50;99.90;;;;;;4974750;28;20264;-68
2022/11/26 10:51:29;;;;;;;6.00;5.17;;;11.50;99.90;;;;;;4974079;28;20192;-67
2022/11/26 10:54:00;;;;;;;8.17;6.00;;;11.30;99.90;;;;;;4974468;28;20400;-68
2022/11/26 10:56:39;;;;;;;9.93;5.33;;;11.20;99.90;;;;;;4974573;28;20558;-67
2022/11/26 10:59:28;;;;;;;6.03;5.43;;;11.00;99.90;;;;;;4974598;28;20264;-68
2022/11/26 11:01:59;;;;;;;6.73;6.00;;;10.90;99.90;;;;;;4974483;28;20182;-68
2022/11/26 11:04:36;;;;;;;10.30;5.80;;;10.80;99.90;;;;;;4974356;28;20205;-68
2022/11/26 11:07:02;;;;;;;12.53;5.97;;;10.80;99.90;;;;;;4979428;28;20205;-67
2022/11/26 11:09:33;;;;;;;7.17;6.43;;;10.70;99.90;;;;;;4979438;28;20170;-67
2022/11/26 11:12:18;;;;;;;7.97;6.23;;;10.70;99.90;;;;;;4977860;28;20185;-67
2022/11/26 11:14:45;;;;;;;5.80;5.43;;;10.70;99.90;;;;;;4976320;28;20276;-68
2022/11/26 11:17:35;;;;;;;7.07;6.03;;;10.70;99.90;;;;;;4973795;28;20261;-68
2022/11/26 11:20:16;;;;;;;7.53;5.77;;;10.70;99.90;;;;;;4970339;28;20285;-67
2022/11/26 11:22:44;;;;;;;7.47;5.40;;;10.80;99.90;;;;;;4976258;28;20173;-67
2022/11/26 11:25:25;;;;;;;6.30;4.97;;;10.80;99.90;;;;;;4974939;28;20213;-68
2022/11/26 11:27:54;;;;;;;6.10;5.50;;;10.90;99.90;;;;;;4974581;28;20178;-68
2022/11/26 11:30:31;;;;;;;7.70;5.60;;;11.00;99.90;;;;;;4973623;28;20192;-67
2022/11/26 11:33:26;;;;;;;6.10;5.53;;;11.00;99.90;;;;;;4974022;28;20721;-67
2022/11/26 11:36:10;;;;;;;7.43;5.23;;;11.20;99.90;;;;;;4975382;28;20196;-67
2022/11/26 11:38:56;;;;;;;5.03;4.70;;;11.20;99.90;;;;;;4975285;28;20194;-68
2022/11/26 11:41:44;;;;;;;11.67;5.80;;;11.10;99.90;;;;;;4973044;28;20578;-67
2022/11/26 11:44:22;;;;;;;6.53;6.00;;;11.10;99.90;;;;;;4962523;28;20280;-68
2022/11/26 11:47:29;;;;;;;6.37;5.40;;;11.00;99.90;;;;;;4972403;28;20744;-67
2022/11/26 11:50:40;;;;;;;5.00;4.77;;;11.00;99.90;;;;;;4940204;28;20197;-68
2022/11/26 11:53:27;;;;;;;6.10;5.27;;;10.90;99.90;;;;;;4954731;28;20316;-68
2022/11/26 11:55:55;;;;;;;6.97;6.40;;;10.90;99.90;;;;;;4973113;28;20189;-68
2022/11/26 11:58:31;;;;;;;6.00;5.50;;;10.90;99.90;;;;;;4955064;28;20212;-67
2022/11/26 12:01:05;;;;;;;9.33;5.70;;;10.90;99.90;;;;;;4973268;28;20177;-68
2022/11/26 12:04:01;;;;;;;6.93;5.30;;;10.90;99.90;;;;;;4972478;28;20172;-68
2022/11/26 12:06:48;;;;;;;7.47;4.77;;;10.90;99.90;;;;;;4972902;28;20205;-67
2022/11/26 12:09:42;;;;;;;6.23;5.17;;;11.00;99.90;;;;;;4973131;28;20169;-68
2022/11/26 12:12:26;;;;;;;5.57;5.07;;;11.10;99.90;;;;;;4953767;29;20252;-68
2022/11/26 12:14:58;;;;;;;6.23;5.60;;;11.20;99.90;;;;;;4957439;28;20200;-67
2022/11/26 12:17:34;;;;;;;6.57;5.87;;;11.30;99.90;;;;;;4972374;28;20170;-67
2022/11/26 12:20:15;;;;;;;5.50;5.10;;;11.40;99.90;;;;;;4972520;28;20182;-67
2022/11/26 12:22:46;;;;;;;5.40;4.90;;;11.50;99.90;;;;;;4972907;28;20177;-68
2022/11/26 12:25:36;;;;;;;8.13;4.90;;;11.50;99.90;;;;;;4972626;28;20236;-68
2022/11/26 12:28:27;;;;;;;5.60;5.10;;;11.40;99.90;;;;;;4972939;28;20180;-68
2022/11/26 12:31:03;;;;;;;5.80;5.30;;;11.40;99.90;;;;;;4967346;28;20236;-67
2022/11/26 12:33:53;;;;;;;5.63;5.07;;;11.30;99.90;;;;;;4972593;28;20280;-66
2022/11/26 12:36:40;;;;;;;6.03;5.43;;;11.30;99.90;;;;;;4972632;28;20197;-67
2022/11/26 12:39:17;;;;;;;5.10;4.43;;;11.30;99.90;;;;;;4972751;28;20224;-66
2022/11/26 12:42:03;;;;;;;5.23;4.83;;;11.30;99.90;;;;;;4976497;28;20196;-66
2022/11/26 12:44:41;;;;;;;6.93;4.50;;;11.20;99.90;;;;;;4978279;28;20262;-66
2022/11/26 12:47:26;;;;;;;8.33;4.93;;;11.20;99.90;;;;;;4975237;28;20209;-66
2022/11/26 12:50:04;;;;;;;10.20;5.47;;;11.20;99.90;;;;;;4972264;28;20667;-66
2022/11/26 12:52:53;;;;;;;7.47;5.23;;;11.30;99.90;;;;;;4955084;28;20357;-65
2022/11/26 12:55:22;;;;;;;9.67;6.03;;;11.30;99.90;;;;;;4972237;28;20567;-66
2022/11/26 12:57:50;;;;;;;10.97;5.23;;;11.30;99.90;;;;;;4972848;28;20252;-67
2022/11/26 13:00:28;;;;;;;6.10;5.53;;;11.30;99.90;;;;;;4972041;28;20193;-66
2022/11/26 13:02:54;;;;;;;8.60;5.43;;;11.20;99.90;;;;;;4972845;28;20173;-67
2022/11/26 13:05:26;;;;;;;5.43;5.03;;;11.10;99.90;;;;;;4972291;28;20201;-66